sensor_id;sensor_type;location;lat;lon;timestamp;P1;durP1;ratioP1;P2;durP2;ratioP2
40757;SDS011;26462;47.384;19.218;2024-02-04T00:01:12;0.85;;;0.30;;
40757;SDS011;26462;47.384;19.218;2024-02-04T00:03:41;1.13;;;0.50;;
40757;SDS011;26462;47.384;19.218;2024-02-04T00:06:13;1.10;;;0.40;;
40757;SDS011;26462;47.384;19.218;2024-02-04T00:08:43;1.88;;;0.50;;
40757;SDS011;26462;47.384;19.218;2024-02-04T00:11:13;0.77;;;0.20;;
40757;SDS011;26462;47.384;19.218;2024-02-04T00:13:59;1.67;;;0.35;;
40757;SDS011;26462;47.384;19.218;2024-02-04T00:16:28;1.65;;;0.32;;
40757;SDS011;26462;47.384;19.218;2024-02-04T00:18:57;0.85;;;0.30;;
40757;SDS011;26462;47.384;19.218;2024-02-04T00:21:31;0.50;;;0.20;;
40757;SDS011;26462;47.384;19.218;2024-02-04T00:24:06;0.50;;;0.13;;
40757;SDS011;26462;47.384;19.218;2024-02-04T00:26:37;0.50;;;0.13;;
40757;SDS011;26462;47.384;19.218;2024-02-04T00:29:09;1.50;;;0.37;;
40757;SDS011;26462;47.384;19.218;2024-02-04T00:31:42;0.75;;;0.25;;
40757;SDS011;26462;47.384;19.218;2024-02-04T00:34:11;1.23;;;0.40;;
40757;SDS011;26462;47.384;19.218;2024-02-04T00:36:43;1.42;;;0.30;;
40757;SDS011;26462;47.384;19.218;2024-02-04T00:39:15;0.98;;;0.20;;
40757;SDS011;26462;47.384;19.218;2024-02-04T00:41:46;1.23;;;0.32;;
40757;SDS011;26462;47.384;19.218;2024-02-04T00:44:15;0.50;;;0.45;;
40757;SDS011;26462;47.384;19.218;2024-02-04T00:46:54;0.45;;;0.20;;
40757;SDS011;26462;47.384;19.218;2024-02-04T00:49:24;0.82;;;0.10;;
40757;SDS011;26462;47.384;19.218;2024-02-04T00:51:54;2.33;;;0.20;;
40757;SDS011;26462;47.384;19.218;2024-02-04T00:54:26;0.63;;;0.30;;
40757;SDS011;26462;47.384;19.218;2024-02-04T00:56:59;1.00;;;0.10;;
40757;SDS011;26462;47.384;19.218;2024-02-04T00:59:29;0.77;;;0.30;;
40757;SDS011;26462;47.384;19.218;2024-02-04T01:02:01;1.85;;;0.30;;
40757;SDS011;26462;47.384;19.218;2024-02-04T01:04:31;1.65;;;0.20;;
40757;SDS011;26462;47.384;19.218;2024-02-04T01:07:06;0.82;;;0.20;;
40757;SDS011;26462;47.384;19.218;2024-02-04T01:09:36;0.88;;;0.20;;
40757;SDS011;26462;47.384;19.218;2024-02-04T01:12:33;0.73;;;0.20;;
40757;SDS011;26462;47.384;19.218;2024-02-04T01:15:09;0.80;;;0.20;;
40757;SDS011;26462;47.384;19.218;2024-02-04T01:17:38;0.60;;;0.20;;
40757;SDS011;26462;47.384;19.218;2024-02-04T01:20:10;0.85;;;0.20;;
40757;SDS011;26462;47.384;19.218;2024-02-04T01:26:48;0.38;;;0.13;;
40757;SDS011;26462;47.384;19.218;2024-02-04T01:29:17;0.52;;;0.10;;
40757;SDS011;26462;47.384;19.218;2024-02-04T01:31:45;1.10;;;0.73;;
40757;SDS011;26462;47.384;19.218;2024-02-04T01:34:15;1.20;;;0.20;;
40757;SDS011;26462;47.384;19.218;2024-02-04T01:36:43;0.93;;;0.20;;
40757;SDS011;26462;47.384;19.218;2024-02-04T01:39:15;2.25;;;0.20;;
40757;SDS011;26462;47.384;19.218;2024-02-04T01:41:43;0.98;;;0.13;;
40757;SDS011;26462;47.384;19.218;2024-02-04T01:44:14;0.50;;;0.20;;
40757;SDS011;26462;47.384;19.218;2024-02-04T01:46:43;1.20;;;0.30;;
40757;SDS011;26462;47.384;19.218;2024-02-04T01:49:12;0.93;;;0.20;;
40757;SDS011;26462;47.384;19.218;2024-02-04T01:51:40;0.60;;;0.20;;
40757;SDS011;26462;47.384;19.218;2024-02-04T01:54:09;0.40;;;0.13;;
40757;SDS011;26462;47.384;19.218;2024-02-04T01:56:37;0.85;;;0.30;;
40757;SDS011;26462;47.384;19.218;2024-02-04T01:59:05;1.23;;;0.38;;
40757;SDS011;26462;47.384;19.218;2024-02-04T02:01:35;1.75;;;0.20;;
40757;SDS011;26462;47.384;19.218;2024-02-04T02:04:05;1.05;;;0.30;;
40757;SDS011;26462;47.384;19.218;2024-02-04T02:06:33;0.60;;;0.20;;
40757;SDS011;26462;47.384;19.218;2024-02-04T02:09:09;0.65;;;0.20;;
40757;SDS011;26462;47.384;19.218;2024-02-04T02:11:41;0.88;;;0.30;;
40757;SDS011;26462;47.384;19.218;2024-02-04T02:16:43;1.95;;;0.30;;
40757;SDS011;26462;47.384;19.218;2024-02-04T02:19:20;1.25;;;0.30;;
40757;SDS011;26462;47.384;19.218;2024-02-04T02:22:00;2.95;;;0.75;;
40757;SDS011;26462;47.384;19.218;2024-02-04T02:24:35;0.80;;;0.25;;
40757;SDS011;26462;47.384;19.218;2024-02-04T02:27:07;1.70;;;0.47;;
40757;SDS011;26462;47.384;19.218;2024-02-04T02:29:36;1.08;;;0.50;;
40757;SDS011;26462;47.384;19.218;2024-02-04T02:32:05;2.38;;;0.65;;
40757;SDS011;26462;47.384;19.218;2024-02-04T02:34:35;1.77;;;0.60;;
40757;SDS011;26462;47.384;19.218;2024-02-04T02:37:08;2.92;;;0.70;;
40757;SDS011;26462;47.384;19.218;2024-02-04T02:39:48;2.03;;;0.50;;
40757;SDS011;26462;47.384;19.218;2024-02-04T02:42:25;1.25;;;0.40;;
40757;SDS011;26462;47.384;19.218;2024-02-04T02:45:01;1.80;;;0.88;;
40757;SDS011;26462;47.384;19.218;2024-02-04T02:47:32;2.45;;;0.50;;
40757;SDS011;26462;47.384;19.218;2024-02-04T02:50:04;1.45;;;0.60;;
40757;SDS011;26462;47.384;19.218;2024-02-04T02:52:34;2.05;;;0.80;;
40757;SDS011;26462;47.384;19.218;2024-02-04T02:55:05;2.25;;;0.70;;
40757;SDS011;26462;47.384;19.218;2024-02-04T02:57:34;1.40;;;0.63;;
40757;SDS011;26462;47.384;19.218;2024-02-04T03:00:06;1.77;;;0.63;;
40757;SDS011;26462;47.384;19.218;2024-02-04T03:02:35;2.30;;;0.75;;
40757;SDS011;26462;47.384;19.218;2024-02-04T03:05:04;1.35;;;0.55;;
40757;SDS011;26462;47.384;19.218;2024-02-04T03:07:33;2.40;;;0.60;;
40757;SDS011;26462;47.384;19.218;2024-02-04T03:10:11;2.85;;;0.75;;
40757;SDS011;26462;47.384;19.218;2024-02-04T03:12:40;3.35;;;1.10;;
40757;SDS011;26462;47.384;19.218;2024-02-04T03:15:09;1.90;;;0.80;;
40757;SDS011;26462;47.384;19.218;2024-02-04T03:17:38;2.65;;;1.10;;
40757;SDS011;26462;47.384;19.218;2024-02-04T03:20:07;2.55;;;0.70;;
40757;SDS011;26462;47.384;19.218;2024-02-04T03:22:36;2.33;;;0.80;;
40757;SDS011;26462;47.384;19.218;2024-02-04T03:25:08;2.47;;;0.77;;
40757;SDS011;26462;47.384;19.218;2024-02-04T03:27:42;2.50;;;0.60;;
40757;SDS011;26462;47.384;19.218;2024-02-04T03:30:11;1.33;;;0.50;;
40757;SDS011;26462;47.384;19.218;2024-02-04T03:32:40;2.03;;;0.52;;
40757;SDS011;26462;47.384;19.218;2024-02-04T03:35:09;1.67;;;0.60;;
40757;SDS011;26462;47.384;19.218;2024-02-04T03:37:39;1.48;;;0.68;;
40757;SDS011;26462;47.384;19.218;2024-02-04T03:40:08;2.33;;;0.85;;
40757;SDS011;26462;47.384;19.218;2024-02-04T03:42:48;2.72;;;1.08;;
40757;SDS011;26462;47.384;19.218;2024-02-04T03:45:22;1.15;;;0.60;;
40757;SDS011;26462;47.384;19.218;2024-02-04T03:47:50;1.67;;;0.70;;
40757;SDS011;26462;47.384;19.218;2024-02-04T03:50:20;1.33;;;0.43;;
40757;SDS011;26462;47.384;19.218;2024-02-04T03:52:48;1.20;;;0.70;;
40757;SDS011;26462;47.384;19.218;2024-02-04T03:55:17;1.77;;;0.90;;
40757;SDS011;26462;47.384;19.218;2024-02-04T03:57:52;1.70;;;1.02;;
40757;SDS011;26462;47.384;19.218;2024-02-04T04:00:33;1.80;;;0.83;;
40757;SDS011;26462;47.384;19.218;2024-02-04T04:03:03;2.50;;;1.10;;
40757;SDS011;26462;47.384;19.218;2024-02-04T04:05:32;3.83;;;0.82;;
40757;SDS011;26462;47.384;19.218;2024-02-04T04:08:05;1.67;;;0.90;;
40757;SDS011;26462;47.384;19.218;2024-02-04T04:10:33;1.50;;;0.68;;
40757;SDS011;26462;47.384;19.218;2024-02-04T04:13:07;1.70;;;0.65;;
40757;SDS011;26462;47.384;19.218;2024-02-04T04:15:35;2.30;;;1.00;;
40757;SDS011;26462;47.384;19.218;2024-02-04T04:18:09;1.95;;;0.90;;
40757;SDS011;26462;47.384;19.218;2024-02-04T04:20:40;2.47;;;1.13;;
40757;SDS011;26462;47.384;19.218;2024-02-04T04:23:14;1.65;;;1.17;;
40757;SDS011;26462;47.384;19.218;2024-02-04T04:25:42;2.25;;;1.05;;
40757;SDS011;26462;47.384;19.218;2024-02-04T04:28:12;2.55;;;0.90;;
40757;SDS011;26462;47.384;19.218;2024-02-04T04:30:43;2.78;;;1.05;;
40757;SDS011;26462;47.384;19.218;2024-02-04T04:33:11;2.63;;;0.90;;
40757;SDS011;26462;47.384;19.218;2024-02-04T04:35:40;2.40;;;1.23;;
40757;SDS011;26462;47.384;19.218;2024-02-04T04:38:09;2.60;;;1.50;;
40757;SDS011;26462;47.384;19.218;2024-02-04T04:40:41;3.33;;;1.70;;
40757;SDS011;26462;47.384;19.218;2024-02-04T04:43:09;3.22;;;1.60;;
40757;SDS011;26462;47.384;19.218;2024-02-04T04:45:39;3.80;;;1.60;;
40757;SDS011;26462;47.384;19.218;2024-02-04T04:48:08;3.03;;;1.38;;
40757;SDS011;26462;47.384;19.218;2024-02-04T04:50:36;2.75;;;1.67;;
40757;SDS011;26462;47.384;19.218;2024-02-04T04:53:05;3.03;;;1.63;;
40757;SDS011;26462;47.384;19.218;2024-02-04T04:55:33;2.58;;;1.65;;
40757;SDS011;26462;47.384;19.218;2024-02-04T04:58:02;2.95;;;1.80;;
40757;SDS011;26462;47.384;19.218;2024-02-04T05:00:35;2.88;;;1.58;;
40757;SDS011;26462;47.384;19.218;2024-02-04T05:03:09;3.58;;;1.60;;
40757;SDS011;26462;47.384;19.218;2024-02-04T05:05:38;2.42;;;1.00;;
40757;SDS011;26462;47.384;19.218;2024-02-04T05:08:06;2.63;;;1.35;;
40757;SDS011;26462;47.384;19.218;2024-02-04T05:10:38;2.30;;;1.17;;
40757;SDS011;26462;47.384;19.218;2024-02-04T05:13:07;3.17;;;1.40;;
40757;SDS011;26462;47.384;19.218;2024-02-04T05:15:36;3.08;;;1.90;;
40757;SDS011;26462;47.384;19.218;2024-02-04T05:18:05;5.30;;;1.50;;
40757;SDS011;26462;47.384;19.218;2024-02-04T05:20:38;3.53;;;1.55;;
40757;SDS011;26462;47.384;19.218;2024-02-04T05:23:10;2.63;;;1.50;;
40757;SDS011;26462;47.384;19.218;2024-02-04T05:25:38;3.95;;;1.33;;
40757;SDS011;26462;47.384;19.218;2024-02-04T05:28:09;3.38;;;1.67;;
40757;SDS011;26462;47.384;19.218;2024-02-04T05:30:37;4.30;;;2.70;;
40757;SDS011;26462;47.384;19.218;2024-02-04T05:33:06;3.10;;;1.70;;
40757;SDS011;26462;47.384;19.218;2024-02-04T05:35:36;5.13;;;1.88;;
40757;SDS011;26462;47.384;19.218;2024-02-04T05:38:05;2.75;;;1.60;;
40757;SDS011;26462;47.384;19.218;2024-02-04T05:40:33;5.60;;;2.72;;
40757;SDS011;26462;47.384;19.218;2024-02-04T05:43:02;3.28;;;1.65;;
40757;SDS011;26462;47.384;19.218;2024-02-04T05:45:39;5.22;;;2.08;;
40757;SDS011;26462;47.384;19.218;2024-02-04T05:48:08;4.32;;;1.70;;
40757;SDS011;26462;47.384;19.218;2024-02-04T05:50:39;4.35;;;1.77;;
40757;SDS011;26462;47.384;19.218;2024-02-04T05:53:08;5.00;;;2.70;;
40757;SDS011;26462;47.384;19.218;2024-02-04T05:55:37;3.55;;;1.67;;
40757;SDS011;26462;47.384;19.218;2024-02-04T05:58:08;3.22;;;1.90;;
40757;SDS011;26462;47.384;19.218;2024-02-04T06:00:37;5.57;;;3.20;;
40757;SDS011;26462;47.384;19.218;2024-02-04T06:03:06;7.47;;;4.13;;
40757;SDS011;26462;47.384;19.218;2024-02-04T06:05:36;5.65;;;2.92;;
40757;SDS011;26462;47.384;19.218;2024-02-04T06:08:06;7.68;;;4.30;;
40757;SDS011;26462;47.384;19.218;2024-02-04T06:10:35;5.20;;;2.97;;
40757;SDS011;26462;47.384;19.218;2024-02-04T06:13:04;17.13;;;7.57;;
40757;SDS011;26462;47.384;19.218;2024-02-04T06:15:33;14.32;;;6.72;;
40757;SDS011;26462;47.384;19.218;2024-02-04T06:18:03;24.73;;;10.45;;
40757;SDS011;26462;47.384;19.218;2024-02-04T06:20:32;16.63;;;8.88;;
40757;SDS011;26462;47.384;19.218;2024-02-04T06:23:01;9.70;;;4.53;;
40757;SDS011;26462;47.384;19.218;2024-02-04T06:25:31;6.55;;;3.67;;
40757;SDS011;26462;47.384;19.218;2024-02-04T06:28:00;4.70;;;2.10;;
40757;SDS011;26462;47.384;19.218;2024-02-04T06:30:29;5.95;;;2.28;;
40757;SDS011;26462;47.384;19.218;2024-02-04T06:32:57;4.13;;;1.85;;
40757;SDS011;26462;47.384;19.218;2024-02-04T06:35:26;6.53;;;2.45;;
40757;SDS011;26462;47.384;19.218;2024-02-04T06:37:55;8.98;;;3.90;;
40757;SDS011;26462;47.384;19.218;2024-02-04T06:40:27;9.80;;;4.63;;
40757;SDS011;26462;47.384;19.218;2024-02-04T06:42:57;9.07;;;3.20;;
40757;SDS011;26462;47.384;19.218;2024-02-04T06:45:25;10.50;;;4.28;;
40757;SDS011;26462;47.384;19.218;2024-02-04T06:47:54;304.88;;;101.63;;
40757;SDS011;26462;47.384;19.218;2024-02-04T06:50:23;388.20;;;151.95;;
40757;SDS011;26462;47.384;19.218;2024-02-04T06:52:51;146.23;;;60.90;;
40757;SDS011;26462;47.384;19.218;2024-02-04T06:55:20;194.80;;;72.50;;
40757;SDS011;26462;47.384;19.218;2024-02-04T06:57:49;108.25;;;44.35;;
40757;SDS011;26462;47.384;19.218;2024-02-04T07:00:23;108.03;;;61.45;;
40757;SDS011;26462;47.384;19.218;2024-02-04T07:03:06;9.80;;;5.47;;
40757;SDS011;26462;47.384;19.218;2024-02-04T07:10:42;4.40;;;2.27;;
40757;SDS011;26462;47.384;19.218;2024-02-04T07:13:53;7.00;;;3.55;;
40757;SDS011;26462;47.384;19.218;2024-02-04T07:16:47;4.78;;;2.72;;
40757;SDS011;26462;47.384;19.218;2024-02-04T07:20:33;4.18;;;2.17;;
40757;SDS011;26462;47.384;19.218;2024-02-04T07:23:29;5.10;;;2.10;;
40757;SDS011;26462;47.384;19.218;2024-02-04T07:27:18;3.65;;;2.10;;
40757;SDS011;26462;47.384;19.218;2024-02-04T07:30:04;3.47;;;2.08;;
40757;SDS011;26462;47.384;19.218;2024-02-04T07:32:57;4.10;;;1.90;;
40757;SDS011;26462;47.384;19.218;2024-02-04T07:35:31;3.58;;;2.17;;
40757;SDS011;26462;47.384;19.218;2024-02-04T07:38:05;6.35;;;3.10;;
40757;SDS011;26462;47.384;19.218;2024-02-04T07:49:21;2.53;;;1.60;;
40757;SDS011;26462;47.384;19.218;2024-02-04T07:51:52;2.08;;;1.27;;
40757;SDS011;26462;47.384;19.218;2024-02-04T07:54:29;2.10;;;1.27;;
40757;SDS011;26462;47.384;19.218;2024-02-04T07:58:13;1.98;;;1.50;;
40757;SDS011;26462;47.384;19.218;2024-02-04T08:00:48;2.00;;;1.27;;
40757;SDS011;26462;47.384;19.218;2024-02-04T08:03:26;2.42;;;1.67;;
40757;SDS011;26462;47.384;19.218;2024-02-04T08:06:05;2.00;;;1.20;;
40757;SDS011;26462;47.384;19.218;2024-02-04T08:08:38;3.35;;;2.08;;
40757;SDS011;26462;47.384;19.218;2024-02-04T08:11:18;4.88;;;3.33;;
40757;SDS011;26462;47.384;19.218;2024-02-04T08:13:58;2.13;;;0.90;;
40757;SDS011;26462;47.384;19.218;2024-02-04T08:16:44;4.25;;;2.10;;
40757;SDS011;26462;47.384;19.218;2024-02-04T08:19:38;6.82;;;3.33;;
40757;SDS011;26462;47.384;19.218;2024-02-04T08:22:12;10.43;;;3.95;;
40757;SDS011;26462;47.384;19.218;2024-02-04T08:24:44;9.00;;;2.92;;
40757;SDS011;26462;47.384;19.218;2024-02-04T08:27:16;16.08;;;7.47;;
40757;SDS011;26462;47.384;19.218;2024-02-04T08:29:45;4.28;;;1.92;;
40757;SDS011;26462;47.384;19.218;2024-02-04T08:32:14;6.00;;;2.58;;
40757;SDS011;26462;47.384;19.218;2024-02-04T08:34:48;4.13;;;1.30;;
40757;SDS011;26462;47.384;19.218;2024-02-04T08:37:24;11.50;;;6.30;;
40757;SDS011;26462;47.384;19.218;2024-02-04T08:39:59;10.90;;;3.80;;
40757;SDS011;26462;47.384;19.218;2024-02-04T08:42:30;8.10;;;5.07;;
40757;SDS011;26462;47.384;19.218;2024-02-04T08:45:00;6.68;;;4.22;;
40757;SDS011;26462;47.384;19.218;2024-02-04T08:47:31;7.53;;;3.47;;
40757;SDS011;26462;47.384;19.218;2024-02-04T08:50:02;6.20;;;2.28;;
40757;SDS011;26462;47.384;19.218;2024-02-04T08:52:33;4.53;;;1.27;;
40757;SDS011;26462;47.384;19.218;2024-02-04T08:55:06;3.05;;;0.88;;
40757;SDS011;26462;47.384;19.218;2024-02-04T08:57:36;24.25;;;12.50;;
40757;SDS011;26462;47.384;19.218;2024-02-04T09:00:07;11.85;;;4.78;;
40757;SDS011;26462;47.384;19.218;2024-02-04T09:02:39;11.65;;;4.38;;
40757;SDS011;26462;47.384;19.218;2024-02-04T09:05:18;54.08;;;21.30;;
40757;SDS011;26462;47.384;19.218;2024-02-04T09:07:59;20.45;;;8.65;;
40757;SDS011;26462;47.384;19.218;2024-02-04T09:13:01;6.05;;;2.55;;
40757;SDS011;26462;47.384;19.218;2024-02-04T09:15:30;37.20;;;12.35;;
40757;SDS011;26462;47.384;19.218;2024-02-04T09:17:59;16.58;;;6.00;;
40757;SDS011;26462;47.384;19.218;2024-02-04T09:20:28;18.65;;;6.03;;
40757;SDS011;26462;47.384;19.218;2024-02-04T09:22:58;18.77;;;7.78;;
40757;SDS011;26462;47.384;19.218;2024-02-04T09:25:33;21.90;;;7.85;;
40757;SDS011;26462;47.384;19.218;2024-02-04T09:28:07;2.17;;;0.63;;
40757;SDS011;26462;47.384;19.218;2024-02-04T09:30:37;9.00;;;3.20;;
40757;SDS011;26462;47.384;19.218;2024-02-04T09:33:07;32.03;;;13.40;;
40757;SDS011;26462;47.384;19.218;2024-02-04T09:36:08;14.32;;;5.28;;
40757;SDS011;26462;47.384;19.218;2024-02-04T09:38:47;19.90;;;8.00;;
40757;SDS011;26462;47.384;19.218;2024-02-04T09:41:19;4.47;;;2.00;;
40757;SDS011;26462;47.384;19.218;2024-02-04T09:43:51;16.65;;;6.78;;
40757;SDS011;26462;47.384;19.218;2024-02-04T09:46:28;5.85;;;2.60;;
40757;SDS011;26462;47.384;19.218;2024-02-04T09:49:09;2.13;;;0.88;;
40757;SDS011;26462;47.384;19.218;2024-02-04T09:51:59;10.70;;;4.15;;
40757;SDS011;26462;47.384;19.218;2024-02-04T09:54:42;3.25;;;1.35;;
40757;SDS011;26462;47.384;19.218;2024-02-04T09:57:48;11.15;;;4.93;;
40757;SDS011;26462;47.384;19.218;2024-02-04T10:00:18;20.50;;;9.52;;
40757;SDS011;26462;47.384;19.218;2024-02-04T10:02:58;11.77;;;4.55;;
40757;SDS011;26462;47.384;19.218;2024-02-04T10:05:30;9.55;;;3.60;;
40757;SDS011;26462;47.384;19.218;2024-02-04T10:08:09;19.00;;;6.68;;
40757;SDS011;26462;47.384;19.218;2024-02-04T10:10:51;16.52;;;6.63;;
40757;SDS011;26462;47.384;19.218;2024-02-04T10:13:25;6.65;;;2.85;;
40757;SDS011;26462;47.384;19.218;2024-02-04T10:16:18;10.15;;;4.43;;
40757;SDS011;26462;47.384;19.218;2024-02-04T10:21:28;8.43;;;3.97;;
40757;SDS011;26462;47.384;19.218;2024-02-04T10:23:59;11.32;;;4.47;;
40757;SDS011;26462;47.384;19.218;2024-02-04T10:27:29;16.67;;;6.38;;
40757;SDS011;26462;47.384;19.218;2024-02-04T10:30:54;7.50;;;3.40;;
40757;SDS011;26462;47.384;19.218;2024-02-04T10:33:31;10.93;;;3.95;;
40757;SDS011;26462;47.384;19.218;2024-02-04T10:37:01;12.10;;;4.57;;
40757;SDS011;26462;47.384;19.218;2024-02-04T10:40:48;3.50;;;1.80;;
40757;SDS011;26462;47.384;19.218;2024-02-04T10:43:51;9.35;;;4.22;;
40757;SDS011;26462;47.384;19.218;2024-02-04T10:47:10;6.85;;;3.17;;
40757;SDS011;26462;47.384;19.218;2024-02-04T10:49:49;2.13;;;0.80;;
40757;SDS011;26462;47.384;19.218;2024-02-04T10:52:27;1.67;;;0.77;;
40757;SDS011;26462;47.384;19.218;2024-02-04T10:56:14;1.55;;;0.63;;
40757;SDS011;26462;47.384;19.218;2024-02-04T10:59:17;2.92;;;1.08;;
40757;SDS011;26462;47.384;19.218;2024-02-04T11:01:57;3.00;;;1.00;;
40757;SDS011;26462;47.384;19.218;2024-02-04T11:05:02;1.90;;;0.65;;
40757;SDS011;26462;47.384;19.218;2024-02-04T11:07:37;1.90;;;0.73;;
40757;SDS011;26462;47.384;19.218;2024-02-04T11:10:09;2.00;;;1.35;;
40757;SDS011;26462;47.384;19.218;2024-02-04T11:13:06;3.42;;;0.73;;
40757;SDS011;26462;47.384;19.218;2024-02-04T11:15:43;15.07;;;7.65;;
40757;SDS011;26462;47.384;19.218;2024-02-04T11:21:30;21.77;;;4.65;;
40757;SDS011;26462;47.384;19.218;2024-02-04T11:24:17;62.15;;;14.82;;
40757;SDS011;26462;47.384;19.218;2024-02-04T11:26:56;59.67;;;16.65;;
40757;SDS011;26462;47.384;19.218;2024-02-04T11:29:26;28.55;;;9.38;;
40757;SDS011;26462;47.384;19.218;2024-02-04T11:32:01;50.35;;;13.60;;
40757;SDS011;26462;47.384;19.218;2024-02-04T11:34:34;20.95;;;7.75;;
40757;SDS011;26462;47.384;19.218;2024-02-04T11:37:13;114.32;;;39.85;;
40757;SDS011;26462;47.384;19.218;2024-02-04T11:39:48;3.15;;;1.10;;
40757;SDS011;26462;47.384;19.218;2024-02-04T11:42:18;1.77;;;0.40;;
40757;SDS011;26462;47.384;19.218;2024-02-04T11:44:48;3.90;;;0.93;;
40757;SDS011;26462;47.384;19.218;2024-02-04T11:47:28;3.45;;;0.75;;
40757;SDS011;26462;47.384;19.218;2024-02-04T11:49:57;5.05;;;1.17;;
40757;SDS011;26462;47.384;19.218;2024-02-04T11:52:31;2.33;;;0.40;;
40757;SDS011;26462;47.384;19.218;2024-02-04T11:55:12;1.02;;;0.30;;
40757;SDS011;26462;47.384;19.218;2024-02-04T11:58:29;1.00;;;0.30;;
40757;SDS011;26462;47.384;19.218;2024-02-04T12:01:09;0.60;;;0.15;;
40757;SDS011;26462;47.384;19.218;2024-02-04T12:08:18;1.58;;;0.50;;
40757;SDS011;26462;47.384;19.218;2024-02-04T12:14:48;3.30;;;0.70;;
40757;SDS011;26462;47.384;19.218;2024-02-04T12:22:08;3.58;;;0.85;;
40757;SDS011;26462;47.384;19.218;2024-02-04T12:24:40;4.68;;;0.98;;
40757;SDS011;26462;47.384;19.218;2024-02-04T12:27:57;7.85;;;1.65;;
40757;SDS011;26462;47.384;19.218;2024-02-04T12:31:33;6.72;;;2.28;;
40757;SDS011;26462;47.384;19.218;2024-02-04T12:34:07;6.15;;;2.50;;
40757;SDS011;26462;47.384;19.218;2024-02-04T12:36:39;11.27;;;4.95;;
40757;SDS011;26462;47.384;19.218;2024-02-04T12:39:10;2.70;;;1.10;;
40757;SDS011;26462;47.384;19.218;2024-02-04T12:44:31;3.08;;;1.10;;
40757;SDS011;26462;47.384;19.218;2024-02-04T12:46:59;2.25;;;0.98;;
40757;SDS011;26462;47.384;19.218;2024-02-04T12:49:28;3.00;;;0.77;;
40757;SDS011;26462;47.384;19.218;2024-02-04T12:52:03;2.95;;;1.23;;
40757;SDS011;26462;47.384;19.218;2024-02-04T12:54:40;3.95;;;1.67;;
40757;SDS011;26462;47.384;19.218;2024-02-04T12:57:21;3.95;;;1.30;;
40757;SDS011;26462;47.384;19.218;2024-02-04T13:00:05;2.78;;;0.75;;
40757;SDS011;26462;47.384;19.218;2024-02-04T13:02:43;1.90;;;0.68;;
40757;SDS011;26462;47.384;19.218;2024-02-04T13:06:06;5.80;;;1.15;;
40757;SDS011;26462;47.384;19.218;2024-02-04T13:09:14;6.38;;;3.30;;
40757;SDS011;26462;47.384;19.218;2024-02-04T13:11:43;10.35;;;4.47;;
40757;SDS011;26462;47.384;19.218;2024-02-04T13:14:29;5.68;;;1.83;;
40757;SDS011;26462;47.384;19.218;2024-02-04T13:17:19;7.32;;;3.15;;
40757;SDS011;26462;47.384;19.218;2024-02-04T13:20:35;15.60;;;6.03;;
40757;SDS011;26462;47.384;19.218;2024-02-04T13:23:05;13.75;;;5.85;;
40757;SDS011;26462;47.384;19.218;2024-02-04T13:26:48;12.68;;;4.22;;
40757;SDS011;26462;47.384;19.218;2024-02-04T13:30:35;11.70;;;3.85;;
40757;SDS011;26462;47.384;19.218;2024-02-04T13:36:35;3.65;;;1.05;;
40757;SDS011;26462;47.384;19.218;2024-02-04T13:42:53;14.02;;;4.93;;
40757;SDS011;26462;47.384;19.218;2024-02-04T13:46:34;2.95;;;0.90;;
40757;SDS011;26462;47.384;19.218;2024-02-04T13:52:28;4.53;;;1.52;;
40757;SDS011;26462;47.384;19.218;2024-02-04T13:58:29;2.58;;;0.88;;
40757;SDS011;26462;47.384;19.218;2024-02-04T14:10:26;12.93;;;7.93;;
40757;SDS011;26462;47.384;19.218;2024-02-04T14:13:55;44.97;;;22.15;;
40757;SDS011;26462;47.384;19.218;2024-02-04T14:17:36;228.15;;;88.50;;
40757;SDS011;26462;47.384;19.218;2024-02-04T14:21:17;2.80;;;1.40;;
40757;SDS011;26462;47.384;19.218;2024-02-04T14:24:38;14.77;;;7.53;;
40757;SDS011;26462;47.384;19.218;2024-02-04T14:30:06;4.95;;;2.22;;
40757;SDS011;26462;47.384;19.218;2024-02-04T14:33:17;3.80;;;3.28;;
40757;SDS011;26462;47.384;19.218;2024-02-04T14:40:16;1.63;;;1.50;;
40757;SDS011;26462;47.384;19.218;2024-02-04T14:43:00;1.23;;;0.68;;
40757;SDS011;26462;47.384;19.218;2024-02-04T14:46:14;1.52;;;0.30;;
40757;SDS011;26462;47.384;19.218;2024-02-04T14:49:42;1.45;;;0.60;;
40757;SDS011;26462;47.384;19.218;2024-02-04T14:52:19;2.78;;;0.77;;
40757;SDS011;26462;47.384;19.218;2024-02-04T14:55:09;2.72;;;0.98;;
40757;SDS011;26462;47.384;19.218;2024-02-04T14:57:49;2.25;;;0.40;;
40757;SDS011;26462;47.384;19.218;2024-02-04T15:03:27;2.70;;;1.00;;
40757;SDS011;26462;47.384;19.218;2024-02-04T15:05:58;3.38;;;0.55;;
40757;SDS011;26462;47.384;19.218;2024-02-04T15:08:46;4.85;;;1.50;;
40757;SDS011;26462;47.384;19.218;2024-02-04T15:11:49;2.88;;;1.00;;
40757;SDS011;26462;47.384;19.218;2024-02-04T15:15:12;15.50;;;5.25;;
40757;SDS011;26462;47.384;19.218;2024-02-04T15:18:01;2.50;;;0.40;;
40757;SDS011;26462;47.384;19.218;2024-02-04T15:20:39;6.05;;;1.40;;
40757;SDS011;26462;47.384;19.218;2024-02-04T15:23:12;5.47;;;1.70;;
40757;SDS011;26462;47.384;19.218;2024-02-04T15:25:59;3.70;;;1.15;;
40757;SDS011;26462;47.384;19.218;2024-02-04T15:28:39;1.38;;;0.52;;
40757;SDS011;26462;47.384;19.218;2024-02-04T15:31:21;2.95;;;0.50;;
40757;SDS011;26462;47.384;19.218;2024-02-04T15:34:17;2.85;;;0.70;;
40757;SDS011;26462;47.384;19.218;2024-02-04T15:37:10;1.13;;;0.20;;
40757;SDS011;26462;47.384;19.218;2024-02-04T15:39:46;0.90;;;0.20;;
40757;SDS011;26462;47.384;19.218;2024-02-04T15:47:13;5.45;;;2.10;;
40757;SDS011;26462;47.384;19.218;2024-02-04T15:50:07;9.05;;;2.83;;
40757;SDS011;26462;47.384;19.218;2024-02-04T15:52:54;1.92;;;0.50;;
40757;SDS011;26462;47.384;19.218;2024-02-04T15:55:39;8.95;;;3.58;;
40757;SDS011;26462;47.384;19.218;2024-02-04T15:58:18;1.97;;;0.23;;
40757;SDS011;26462;47.384;19.218;2024-02-04T16:00:59;5.75;;;1.92;;
40757;SDS011;26462;47.384;19.218;2024-02-04T16:03:56;3.00;;;0.95;;
40757;SDS011;26462;47.384;19.218;2024-02-04T16:06:27;5.18;;;2.65;;
40757;SDS011;26462;47.384;19.218;2024-02-04T16:08:56;0.82;;;0.20;;
40757;SDS011;26462;47.384;19.218;2024-02-04T16:11:26;0.52;;;0.13;;
40757;SDS011;26462;47.384;19.218;2024-02-04T16:13:59;0.40;;;0.10;;
40757;SDS011;26462;47.384;19.218;2024-02-04T16:16:32;0.98;;;0.20;;
40757;SDS011;26462;47.384;19.218;2024-02-04T16:19:04;0.60;;;0.10;;
40757;SDS011;26462;47.384;19.218;2024-02-04T16:21:37;1.00;;;0.20;;
40757;SDS011;26462;47.384;19.218;2024-02-04T16:24:07;0.98;;;0.30;;
40757;SDS011;26462;47.384;19.218;2024-02-04T16:26:36;1.40;;;0.20;;
40757;SDS011;26462;47.384;19.218;2024-02-04T16:31:37;2.05;;;0.43;;
40757;SDS011;26462;47.384;19.218;2024-02-04T16:34:07;1.02;;;0.20;;
40757;SDS011;26462;47.384;19.218;2024-02-04T16:36:40;3.25;;;1.52;;
40757;SDS011;26462;47.384;19.218;2024-02-04T16:39:10;2.78;;;1.55;;
40757;SDS011;26462;47.384;19.218;2024-02-04T16:41:41;2.08;;;0.20;;
40757;SDS011;26462;47.384;19.218;2024-02-04T16:44:19;1.27;;;0.40;;
40757;SDS011;26462;47.384;19.218;2024-02-04T16:46:49;3.38;;;0.80;;
40757;SDS011;26462;47.384;19.218;2024-02-04T16:49:17;1.30;;;0.30;;
40757;SDS011;26462;47.384;19.218;2024-02-04T16:51:51;1.70;;;0.40;;
40757;SDS011;26462;47.384;19.218;2024-02-04T16:54:20;3.20;;;1.13;;
40757;SDS011;26462;47.384;19.218;2024-02-04T16:56:54;19.80;;;8.07;;
40757;SDS011;26462;47.384;19.218;2024-02-04T16:59:39;1.13;;;0.40;;
40757;SDS011;26462;47.384;19.218;2024-02-04T17:02:12;1.50;;;0.63;;